createdAt,value
2022-08-14T00:01:16.646Z,6.72
2022-08-14T00:06:29.089Z,8.00
2022-08-14T00:11:33.634Z,6.15
2022-08-14T00:16:41.251Z,6.15
2022-08-14T00:21:47.963Z,7.60
2022-08-14T00:26:54.908Z,6.85
2022-08-14T00:31:57.726Z,7.65
2022-08-14T00:37:00.581Z,7.72
2022-08-14T00:42:07.576Z,7.35
2022-08-14T00:47:24.987Z,7.95
2022-08-14T00:52:32.007Z,7.68
2022-08-14T00:57:38.683Z,7.88
2022-08-14T01:02:45.191Z,7.70
2022-08-14T01:07:58.479Z,8.07
2022-08-14T01:13:02.919Z,7.80
2022-08-14T01:18:23.828Z,8.25
2022-08-14T01:23:46.463Z,7.55
2022-08-14T01:28:57.639Z,7.65
2022-08-14T01:35:17.903Z,7.20
2022-08-14T01:39:27.731Z,7.43
2022-08-14T01:44:37.949Z,7.38
2022-08-14T01:49:46.197Z,7.93
2022-08-14T01:55:03.758Z,9.20
2022-08-14T02:00:16.885Z,7.50
2022-08-14T02:05:21.399Z,9.25
2022-08-14T02:10:29.042Z,8.52
2022-08-14T02:15:31.883Z,7.50
2022-08-14T02:20:36.036Z,7.68
2022-08-14T02:25:40.405Z,8.48
2022-08-14T02:30:43.238Z,7.93
2022-08-14T02:35:53.241Z,8.43
2022-08-14T02:41:02.885Z,7.55
2022-08-14T02:46:12.855Z,7.72
2022-08-14T02:51:15.922Z,7.82
2022-08-14T02:56:30.077Z,8.50
2022-08-14T03:01:50.369Z,8.55
2022-08-14T03:06:58.190Z,8.13
2022-08-14T03:12:13.128Z,8.97
2022-08-14T03:17:31.714Z,8.90
2022-08-14T03:22:43.704Z,8.82
2022-08-14T03:27:58.644Z,7.82
2022-08-14T03:33:02.720Z,8.00
2022-08-14T03:39:11.617Z,8.80
2022-08-14T03:43:33.130Z,8.93
2022-08-14T03:48:40.306Z,8.73
2022-08-14T03:58:52.482Z,8.55
2022-08-14T04:09:00.931Z,10.40
2022-08-14T07:38:37.541Z,9.60
2022-08-14T07:43:41.364Z,8.73
2022-08-14T07:48:44.455Z,9.63
2022-08-14T07:53:56.780Z,9.93
2022-08-14T07:59:00.125Z,9.27
2022-08-14T08:04:11.007Z,9.00
2022-08-14T08:09:31.743Z,19.25
2022-08-14T08:14:56.037Z,8.45
2022-08-14T08:19:58.447Z,7.03
2022-08-14T08:25:04.862Z,8.60
2022-08-14T08:30:16.618Z,7.38
2022-08-14T08:35:23.444Z,7.18
2022-08-14T08:40:32.556Z,6.80
2022-08-14T08:45:37.192Z,7.97
2022-08-14T08:55:46.674Z,9.02
2022-08-14T09:00:54.323Z,6.95
2022-08-14T09:06:01.225Z,6.05
2022-08-14T09:11:19.751Z,7.43
2022-08-14T09:16:26.389Z,6.63
2022-08-14T09:21:31.145Z,7.23
2022-08-14T09:26:37.150Z,6.07
2022-08-14T09:31:52.773Z,7.28
2022-08-14T09:37:14.743Z,5.50
2022-08-14T09:42:36.892Z,6.32
2022-08-14T09:47:51.942Z,7.40
2022-08-14T09:52:58.246Z,4.65
2022-08-14T09:58:15.085Z,4.70
2022-08-14T10:03:30.292Z,6.93
2022-08-14T10:08:51.215Z,5.78
2022-08-14T10:14:02.403Z,5.63
2022-08-14T10:19:09.583Z,5.70
2022-08-14T10:24:17.438Z,5.20
2022-08-14T10:29:32.392Z,4.90
2022-08-14T10:34:38.717Z,5.63
2022-08-14T10:39:51.237Z,5.70
2022-08-14T10:45:20.381Z,5.60
2022-08-14T10:50:30.854Z,5.80
2022-08-14T10:55:39.699Z,4.38
2022-08-14T11:00:58.342Z,4.53
2022-08-14T11:06:01.794Z,4.82
2022-08-14T11:11:07.100Z,4.25
2022-08-14T11:16:13.914Z,4.38
2022-08-14T11:21:22.847Z,4.30
2022-08-14T11:26:30.252Z,3.85
2022-08-14T11:31:38.886Z,4.53
2022-08-14T11:37:09.529Z,3.60
2022-08-14T11:42:55.771Z,4.40
2022-08-14T11:47:35.315Z,4.15
2022-08-14T11:52:50.821Z,4.05
2022-08-14T11:58:05.157Z,3.72
2022-08-14T12:03:14.307Z,4.00
2022-08-14T12:08:24.650Z,4.20
2022-08-14T12:18:41.681Z,4.15
2022-08-14T12:23:50.624Z,4.25
2022-08-14T12:28:59.679Z,3.97
2022-08-14T12:34:10.193Z,4.32
2022-08-14T12:39:20.300Z,4.15
2022-08-14T12:44:31.007Z,3.83
2022-08-14T12:49:35.248Z,3.58
2022-08-14T12:54:56.077Z,3.78
2022-08-14T13:00:23.027Z,3.75
2022-08-14T13:05:30.098Z,3.37
2022-08-14T13:10:46.923Z,2.58
2022-08-14T13:15:55.962Z,3.38
2022-08-14T13:21:05.485Z,3.00
2022-08-14T13:26:08.560Z,2.72
2022-08-14T13:31:14.164Z,3.10
2022-08-14T13:36:23.897Z,2.05
2022-08-14T13:41:31.707Z,2.20
2022-08-14T13:46:39.350Z,2.28
2022-08-14T13:51:52.948Z,1.83
2022-08-14T13:56:57.210Z,1.70
2022-08-14T14:02:06.854Z,2.03
2022-08-14T14:07:14.565Z,2.00
2022-08-14T14:12:37.533Z,1.90
2022-08-14T14:17:44.288Z,2.22
2022-08-14T14:23:01.584Z,2.03
2022-08-14T14:28:06.095Z,2.50
2022-08-14T14:33:42.481Z,2.30
2022-08-14T14:38:40.827Z,2.72
2022-08-14T14:43:51.661Z,2.75
2022-08-14T14:48:54.909Z,2.63
2022-08-14T14:54:00.770Z,2.53
2022-08-14T14:59:04.619Z,2.60
2022-08-14T15:04:20.111Z,2.80
2022-08-14T15:09:25.120Z,2.88
2022-08-14T15:14:55.785Z,3.05
2022-08-14T15:19:56.416Z,3.47
2022-08-14T15:25:01.245Z,3.50
2022-08-14T15:30:06.496Z,3.75
2022-08-14T15:35:11.822Z,3.53
2022-08-14T15:40:22.438Z,3.17
2022-08-14T15:45:25.598Z,3.05
2022-08-14T15:50:30.349Z,3.65
2022-08-14T15:55:34.738Z,2.97
2022-08-14T16:00:56.008Z,3.45
2022-08-14T16:05:59.862Z,3.90
2022-08-14T16:11:09.141Z,4.00
2022-08-14T16:16:47.243Z,4.47
2022-08-14T16:22:02.256Z,3.92
2022-08-14T16:27:08.125Z,4.57
2022-08-14T16:32:32.667Z,4.47
2022-08-14T16:37:41.286Z,4.85
2022-08-14T16:43:04.358Z,4.60
2022-08-14T16:48:55.087Z,4.63
2022-08-14T16:53:37.214Z,4.70
2022-08-14T16:58:41.646Z,4.47
2022-08-14T17:03:56.584Z,4.70
2022-08-14T17:08:59.318Z,5.17
2022-08-14T17:14:04.984Z,5.20
2022-08-14T17:19:14.252Z,4.40
2022-08-14T17:24:58.365Z,5.10
2022-08-14T17:29:56.087Z,5.28
2022-08-14T17:35:01.882Z,4.85
2022-08-14T17:40:15.146Z,5.20
2022-08-14T17:45:27.103Z,4.30
2022-08-14T17:51:00.258Z,4.80
2022-08-14T17:56:04.744Z,4.75
2022-08-14T18:01:14.165Z,4.90
2022-08-14T18:06:39.839Z,5.82
2022-08-14T18:11:46.275Z,5.63
2022-08-14T18:16:52.803Z,5.07
2022-08-14T18:21:58.124Z,5.82
2022-08-14T18:27:08.694Z,4.93
2022-08-14T18:32:47.266Z,5.68
2022-08-14T18:38:26.306Z,5.73
2022-08-14T18:43:59.384Z,4.82
2022-08-14T18:49:16.242Z,5.45
2022-08-14T18:54:34.337Z,5.40
2022-08-14T18:59:40.417Z,5.72
2022-08-14T19:04:47.455Z,5.40
2022-08-14T19:09:56.325Z,5.85
2022-08-14T19:15:09.056Z,5.50
2022-08-14T19:20:14.481Z,5.75
2022-08-14T19:25:48.931Z,5.57
2022-08-14T19:31:36.932Z,6.20
2022-08-14T19:37:05.318Z,5.95
2022-08-14T19:42:10.472Z,6.15
2022-08-14T19:47:17.859Z,6.13
2022-08-14T19:52:23.712Z,7.00
2022-08-14T19:57:29.043Z,5.50
2022-08-14T20:02:32.129Z,6.55
2022-08-14T20:08:00.270Z,6.35
2022-08-14T20:13:06.139Z,6.25
2022-08-14T20:18:18.309Z,5.95
2022-08-14T20:23:38.403Z,6.13
2022-08-14T20:28:51.562Z,6.20
2022-08-14T20:34:06.167Z,6.18
2022-08-14T20:39:15.298Z,6.18
2022-08-14T20:44:38.644Z,6.68
2022-08-14T20:49:41.433Z,6.82
2022-08-14T20:54:50.761Z,5.45
2022-08-14T20:59:56.665Z,5.80
2022-08-14T21:05:16.385Z,6.80
2022-08-14T21:10:36.181Z,5.32
2022-08-14T21:15:39.706Z,6.93
2022-08-14T21:20:46.183Z,6.50
2022-08-14T21:25:48.968Z,6.50
2022-08-14T21:30:54.953Z,7.75
2022-08-14T21:36:07.529Z,6.82
2022-08-14T21:41:42.850Z,6.13
2022-08-14T21:46:47.570Z,6.68
2022-08-14T21:51:59.964Z,6.38
2022-08-14T21:57:13.661Z,6.18
2022-08-14T22:02:32.598Z,5.80
2022-08-14T22:07:38.881Z,7.22
2022-08-14T22:12:58.630Z,6.77
2022-08-14T22:18:04.084Z,6.25
2022-08-14T22:23:12.597Z,6.93
2022-08-14T22:28:25.419Z,7.20
2022-08-14T22:33:30.865Z,6.50
2022-08-14T22:38:39.025Z,7.10
2022-08-14T22:43:54.607Z,7.40
2022-08-14T22:48:57.748Z,6.38
2022-08-14T22:54:01.937Z,6.55
2022-08-14T22:59:09.835Z,5.78
2022-08-14T23:04:35.667Z,6.35
2022-08-14T23:09:56.654Z,7.03
2022-08-14T23:15:00.914Z,6.68
2022-08-14T23:20:04.998Z,6.90
2022-08-14T23:25:12.269Z,6.60
2022-08-14T23:30:31.458Z,7.13
2022-08-14T23:35:41.761Z,6.72
2022-08-14T23:41:08.774Z,7.65
2022-08-14T23:46:14.969Z,6.78
2022-08-14T23:51:20.154Z,6.72
2022-08-14T23:56:30.200Z,6.38
